»·PEaware :: N70U KSNA-KSEE

N70U :: KSNA-KSEE

FLIGHT INFORMATION

Flight Status: Arrived
Operator: Privately registered:
United States
More flights under this callsign
Pilot: Troy R. (16836)
Aircraft: CESSNA 172 SKYHAWK
(C172)
More flights by this aircraft type
Origin: KSNA John Wayne-Orange Co
United States
Destination: KSEE Gillespie
United States
More flights between these airports :: More routes between these airports
Route: V23 MZB
File this flight plan on PilotEdge
Remarks: VECTORS LOC 25
Altitude:
(Current/Filed)
5,000ft
Speed:
(Current/Filed)
110kts
Departed: 12-Jan-18 08:16 PM
Arrived: 12-Jan-18 09:02 PM
Distance/Time
Traveled:
68nm/0:46
Distance/Time
To Go:
Arrived

Flight Plot

Page will automatically refresh every two minutes.


Map Options




Map Legend


Flown Route
Filed Route
Departure Airport
Arrival Airport
Navaid (VOR, NDB)
Fix

Horizontal Profiles

Position Reports

Time Latitude Longitude Heading Altitude Ground
Speed
12-Jan-18 20:14 33.681086 -117.861097 116 60ft 0kts
12-Jan-18 20:15 33.681086 -117.861097 116 60ft 0kts
12-Jan-18 20:16 33.681086 -117.861097 116 60ft 0kts
12-Jan-18 20:17 33.681086 -117.861097 116 60ft 0kts
12-Jan-18 20:18 33.681086 -117.861097 116 60ft 0kts
12-Jan-18 20:19 33.681097 -117.860978 53 60ft 2kts
12-Jan-18 20:20 33.680750 -117.863178 307 60ft 2kts
12-Jan-18 20:21 33.680756 -117.863187 308 60ft 0kts
12-Jan-18 20:22 33.679062 -117.864840 207 60ft 53kts
12-Jan-18 20:23 33.660397 -117.877825 212 529ft 94kts
12-Jan-18 20:24 33.641078 -117.883434 182 1543ft 73kts
12-Jan-18 20:25 33.621147 -117.882644 184 2317ft 71kts
12-Jan-18 20:26 33.601500 -117.884253 185 3016ft 78kts
12-Jan-18 20:27 33.588220 -117.857085 112 3027ft 114kts
12-Jan-18 20:28 33.575999 -117.825323 107 3283ft 92kts
12-Jan-18 20:29 33.561700 -117.802226 145 3786ft 86kts
12-Jan-18 20:30 33.545452 -117.779889 121 4290ft 92kts
12-Jan-18 20:31 33.529916 -117.757318 125 4832ft 83kts
12-Jan-18 20:32 33.513478 -117.736402 121 5001ft 94kts
12-Jan-18 20:33 33.496334 -117.708447 126 5035ft 117kts
12-Jan-18 20:34 33.474673 -117.678977 129 4901ft 119kts
12-Jan-18 20:35 33.448672 -117.655938 153 4933ft 111kts
12-Jan-18 20:36 33.428045 -117.632028 112 5066ft 104kts
12-Jan-18 20:37 33.409026 -117.605163 129 4978ft 116kts
12-Jan-18 20:38 33.387250 -117.576688 124 4947ft 115kts
12-Jan-18 20:39 33.363532 -117.551521 145 4852ft 120kts
12-Jan-18 20:40 33.336728 -117.530022 143 4850ft 116kts
12-Jan-18 20:41 33.314443 -117.504027 144 4955ft 106kts
12-Jan-18 20:42 33.291761 -117.481024 129 5005ft 110kts
12-Jan-18 20:43 33.270930 -117.454434 142 5032ft 111kts
12-Jan-18 20:44 33.249529 -117.428038 135 5073ft 105kts
12-Jan-18 20:45 33.225779 -117.406784 153 5109ft 107kts
12-Jan-18 20:46 33.198089 -117.392808 182 5108ft 109kts
12-Jan-18 20:47 33.167410 -117.394114 147 4973ft 117kts
12-Jan-18 20:48 33.139305 -117.376631 162 4997ft 115kts
12-Jan-18 20:49 33.108831 -117.370720 167 4941ft 116kts
12-Jan-18 20:50 33.080753 -117.355819 163 5022ft 111kts
12-Jan-18 20:51 33.052875 -117.341608 143 5000ft 113kts
12-Jan-18 20:52 33.024160 -117.327650 155 5031ft 116kts
12-Jan-18 20:53 32.994658 -117.313377 161 4943ft 116kts
12-Jan-18 20:54 32.966996 -117.297452 151 4975ft 107kts
12-Jan-18 20:55 32.940394 -117.279907 150 5019ft 109kts
12-Jan-18 20:56 32.913704 -117.261885 151 4980ft 114kts
12-Jan-18 20:57 32.887680 -117.244168 122 4993ft 112kts
12-Jan-18 20:58 32.872112 -117.212232 118 4994ft 112kts
12-Jan-18 20:59 32.856824 -117.180016 110 4938ft 118kts
12-Jan-18 21:00 32.840125 -117.145832 121 4787ft 114kts
12-Jan-18 21:01 32.831189 -117.108860 95 4665ft 110kts
12-Jan-18 21:02 32.827529 -117.073049 98 4622ft 111kts
12-Jan-18 21:03 32.823286 -117.034022 98 3142ft 122kts
12-Jan-18 21:04 32.816761 -116.997149 108 2150ft 121kts
12-Jan-18 21:05 32.812819 -116.960007 95 1338ft 112kts
12-Jan-18 21:06 32.823271 -116.947922 293 993ft 92kts
12-Jan-18 21:07 32.827645 -116.970768 278 392ft 44kts
12-Jan-18 21:08 32.829064 -116.971624 77 392ft 0kts
12-Jan-18 21:09 32.829066 -116.971601 84 392ft 0kts
12-Jan-18 21:10 32.829066 -116.971601 84 392ft 0kts
12-Jan-18 21:11 32.829066 -116.971601 84 392ft 0kts
12-Jan-18 21:12 32.829066 -116.971601 84 392ft 0kts
12-Jan-18 21:13 32.829066 -116.971601 84 392ft 0kts
12-Jan-18 21:14 32.829066 -116.971601 84 392ft 0kts
12-Jan-18 21:15 32.829066 -116.971601 84 392ft 0kts
12-Jan-18 21:16 32.829066 -116.971601 84 392ft 0kts

Navigation Log

Ident Type
1. KSNA Airport
2. MZB Navaid
3. KSEE Airport